Time;durP1;ratioP1;P1;durP2;ratioP2;P2;SDS_P1;SDS_P2;PMS_P1;PMS_P2;Temp;Humidity;BMP_temperature;BMP_pressure;BME280_temperature;BME280_humidity;BME280_pressure;Samples;Min_cycle;Max_cycle;Signal;HPM_P1;HPM_P2
2022/12/20 00:02:00;;;;;;;77.20;44.20;;;;;;;-9.27;96.93;99265.94;108000;1263;58902;-66
2022/12/20 00:04:29;;;;;;;66.20;39.40;;;;;;;-9.29;95.33;99263.16;108031;1261;59219;-65
2022/12/20 00:06:59;;;;;;;82.90;48.70;;;;;;;-9.31;94.56;99255.63;108032;1261;71242;-66
2022/12/20 00:09:28;;;;;;;78.30;41.80;;;;;;;-9.32;96.44;99258.66;108007;1264;68577;-65
2022/12/20 00:11:59;;;;;;;70.00;39.70;;;;;;;-9.34;96.62;99252.67;108061;1266;68448;-65
2022/12/20 00:14:28;;;;;;;76.50;43.20;;;;;;;-9.36;96.47;99244.16;108054;1265;58902;-66
2022/12/20 00:16:57;;;;;;;81.50;51.00;;;;;;;-9.37;96.49;99231.64;108006;1265;58950;-66
2022/12/20 00:19:26;;;;;;;75.00;42.60;;;;;;;-9.33;96.49;99224.52;107976;1265;71043;-66
2022/12/20 00:21:57;;;;;;;57.70;36.80;;;;;;;-9.31;97.02;99228.79;108032;1266;68389;-65
2022/12/20 00:24:26;;;;;;;63.90;38.20;;;;;;;-9.31;97.52;99224.42;108052;1265;67531;-66
2022/12/20 00:26:56;;;;;;;63.70;36.30;;;;;;;-9.26;97.42;99215.30;108001;1265;58916;-65
2022/12/20 00:29:25;;;;;;;54.60;30.20;;;;;;;-9.19;96.73;99216.02;108036;1263;58886;-65
2022/12/20 00:31:54;;;;;;;69.40;34.30;;;;;;;-9.14;96.55;99215.70;108084;1263;71254;-66
2022/12/20 00:34:23;;;;;;;62.80;35.50;;;;;;;-9.08;98.10;99213.68;108040;1266;68361;-66
2022/12/20 00:36:53;;;;;;;65.60;35.30;;;;;;;-9.06;98.70;99215.96;108031;1266;69235;-65
2022/12/20 00:39:22;;;;;;;55.20;31.70;;;;;;;-9.06;97.92;99206.16;107990;1266;58915;-66
2022/12/20 00:41:53;;;;;;;63.30;36.80;;;;;;;-9.08;96.09;99206.95;108025;1263;58890;-66
2022/12/20 00:44:23;;;;;;;50.20;28.90;;;;;;;-9.10;95.70;99207.20;108030;1266;70753;-67
2022/12/20 00:46:53;;;;;;;44.40;28.40;;;;;;;-9.14;96.12;99201.84;108041;1266;69246;-66
2022/12/20 00:49:23;;;;;;;61.60;33.10;;;;;;;-9.17;97.00;99203.24;107993;1266;69494;-65
2022/12/20 00:51:54;;;;;;;54.50;30.00;;;;;;;-9.19;97.85;99197.61;108008;1266;58883;-66
2022/12/20 00:54:24;;;;;;;54.30;30.00;;;;;;;-9.24;96.91;99193.75;108038;1266;58970;-66
2022/12/20 00:56:54;;;;;;;51.70;29.70;;;;;;;-9.24;96.25;99190.71;108015;1261;71042;-66
2022/12/20 00:59:24;;;;;;;58.30;29.40;;;;;;;-9.23;96.64;99188.21;108038;1261;69667;-66
2022/12/20 01:01:54;;;;;;;56.20;29.40;;;;;;;-9.21;97.06;99184.86;107998;1264;69216;-66
2022/12/20 01:04:24;;;;;;;;;;;;;;;-9.21;96.91;99179.30;108029;1262;58975;-66
2022/12/20 01:06:54;;;;;;;38.30;21.40;;;;;;;-9.18;96.63;99180.75;108046;1266;59325;-66
2022/12/20 01:09:24;;;;;;;;;;;;;;;-9.18;97.18;99177.21;107933;1263;69663;-67
2022/12/20 01:11:54;;;;;;;41.80;23.70;;;;;;;-9.15;97.54;99168.55;108054;1266;69395;-67
2022/12/20 01:14:25;;;;;;;42.90;25.10;;;;;;;-9.05;98.73;99169.03;107879;1263;69791;-67
2022/12/20 01:16:54;;;;;;;40.70;21.90;;;;;;;-9.00;97.96;99168.19;107968;1263;59260;-67
2022/12/20 01:19:25;;;;;;;42.40;23.40;;;;;;;-8.98;97.61;99158.10;107932;1263;58927;-67
2022/12/20 01:21:56;;;;;;;31.80;17.20;;;;;;;-8.95;97.91;99154.33;108008;1264;69775;-66
2022/12/20 01:24:26;;;;;;;40.40;24.60;;;;;;;-8.93;98.10;99159.61;108008;1264;69249;-67
2022/12/20 01:26:55;;;;;;;52.80;25.40;;;;;;;-8.92;97.97;99160.17;107970;1265;69790;-67
2022/12/20 01:29:24;;;;;;;41.40;22.20;;;;;;;-8.90;97.71;99155.00;107949;1266;58892;-67
2022/12/20 01:31:53;;;;;;;37.70;20.70;;;;;;;-8.86;97.44;99159.19;108040;1262;58957;-66
2022/12/20 01:34:22;;;;;;;35.90;21.10;;;;;;;-8.85;97.13;99161.56;107840;1266;69822;-66
2022/12/20 01:36:52;;;;;;;41.00;21.10;;;;;;;-8.86;96.99;99155.79;107975;1266;69441;-67
2022/12/20 01:39:21;;;;;;;;;;;;;;;-8.84;97.06;99156.17;108062;1262;68340;-67
2022/12/20 01:41:51;;;;;;;25.40;15.20;;;;;;;-8.84;96.82;99155.01;108179;1266;58981;-67
2022/12/20 01:44:20;;;;;;;32.30;18.10;;;;;;;-8.84;96.67;99151.12;108000;1264;58846;-67
2022/12/20 01:46:51;;;;;;;39.10;21.50;;;;;;;-8.82;96.97;99143.92;108043;1266;71300;-67
2022/12/20 01:49:29;;;;;;;39.90;23.00;;;;;;;-8.75;97.04;99148.02;108003;1265;69142;-66
2022/12/20 01:52:05;;;;;;;37.20;22.00;;;;;;;-8.72;96.73;99153.36;108101;1263;68514;-67
2022/12/20 01:54:44;;;;;;;39.60;23.30;;;;;;;-8.73;96.45;99152.68;108044;1263;58877;-65
2022/12/20 01:57:24;;;;;;;33.10;18.10;;;;;;;-8.72;96.06;99148.14;108006;1265;58814;-66
2022/12/20 01:59:55;;;;;;;42.80;21.70;;;;;;;-8.70;95.99;99138.54;107908;1263;71205;-66
2022/12/20 02:02:26;;;;;;;36.30;21.40;;;;;;;-8.69;95.92;99137.55;107989;1267;69225;-66
2022/12/20 02:04:57;;;;;;;39.10;22.70;;;;;;;-8.65;96.23;99132.27;107997;1266;69087;-67
2022/12/20 02:07:32;;;;;;;39.70;21.10;;;;;;;-8.60;96.22;99133.80;108030;1255;58967;-67
2022/12/20 02:10:07;;;;;;;29.70;18.00;;;;;;;-8.56;96.83;99130.85;108093;1260;58961;-67
2022/12/20 02:12:44;;;;;;;28.60;16.80;;;;;;;-8.56;96.62;99133.55;107987;1265;70613;-68
2022/12/20 02:15:42;;;;;;;39.10;23.10;;;;;;;-8.56;96.41;99124.41;108035;1261;69172;-67
2022/12/20 02:18:12;;;;;;;37.30;22.00;;;;;;;-8.53;96.16;99122.16;108037;1266;69747;-67
2022/12/20 02:21:05;;;;;;;;;;;;;;;-8.51;96.45;99119.66;108050;1263;58922;-67
2022/12/20 02:24:13;;;;;;;37.60;19.70;;;;;;;-8.52;96.74;99114.41;108008;1266;58970;-66
2022/12/20 02:27:19;;;;;;;33.10;17.90;;;;;;;-8.54;96.61;99109.45;107983;1263;69039;-66
2022/12/20 02:30:09;;;;;;;40.90;22.80;;;;;;;-8.54;95.91;99109.45;107980;1264;68566;-66
2022/12/20 02:32:51;;;;;;;47.20;25.80;;;;;;;-8.54;96.92;99100.66;108073;1262;69737;-66
2022/12/20 02:35:25;;;;;;;30.30;18.70;;;;;;;-8.66;94.30;99115.00;108055;1262;59290;-68
2022/12/20 02:38:01;;;;;;;40.10;20.70;;;;;;;-8.81;93.49;99103.06;108021;1265;58890;-68
2022/12/20 02:40:39;;;;;;;30.60;17.80;;;;;;;-8.89;95.32;99103.81;107893;1263;70494;-68
2022/12/20 02:46:01;;;;;;;36.20;20.00;;;;;;;-9.02;95.11;99108.33;107648;1266;69737;-67
2022/12/20 02:48:35;;;;;;;34.80;18.00;;;;;;;-9.02;96.04;99106.45;107670;1263;58979;-67
2022/12/20 02:51:07;;;;;;;32.90;18.30;;;;;;;-8.99;97.18;99100.46;107785;1266;58920;-68
2022/12/20 02:53:39;;;;;;;44.20;25.50;;;;;;;-8.95;97.90;99112.42;107956;1266;69589;-68
2022/12/20 02:56:33;;;;;;;43.80;23.20;;;;;;;-9.01;96.56;99107.66;108014;1255;69261;-69
2022/12/20 02:59:09;;;;;;;35.10;20.00;;;;;;;-9.07;96.04;99105.30;108008;1259;68260;-67
2022/12/20 03:01:53;;;;;;;37.10;19.00;;;;;;;-9.11;96.11;99105.48;107963;1264;58957;-67
2022/12/20 03:04:34;;;;;;;36.40;20.40;;;;;;;-9.13;95.44;99096.13;107756;1266;58966;-67
2022/12/20 03:07:12;;;;;;;36.70;19.60;;;;;;;-9.11;95.98;99094.66;107743;1262;68782;-69
2022/12/20 03:09:44;;;;;;;29.90;17.70;;;;;;;-9.08;97.15;99096.30;107807;1267;69234;-67
2022/12/20 03:12:17;;;;;;;36.70;20.10;;;;;;;-9.09;96.66;99096.27;107788;1265;68521;-67
2022/12/20 03:14:48;;;;;;;24.90;15.90;;;;;;;-9.10;96.54;99095.53;107980;1264;58839;-68
2022/12/20 03:17:18;;;;;;;32.70;17.30;;;;;;;-9.13;96.19;99095.28;107821;1266;58845;-68
2022/12/20 03:19:49;;;;;;;32.10;18.00;;;;;;;-9.16;96.07;99090.11;107946;1266;71166;-68
2022/12/20 03:22:19;;;;;;;27.30;16.60;;;;;;;-9.16;96.77;99090.64;108045;1262;69670;-68
2022/12/20 03:24:49;;;;;;;21.80;14.10;;;;;;;-9.14;97.59;99090.54;107786;1262;69236;-68
2022/12/20 03:27:20;;;;;;;33.50;18.50;;;;;;;-9.15;97.47;99086.77;108027;1266;58848;-67
2022/12/20 03:29:50;;;;;;;24.30;15.60;;;;;;;-9.15;97.48;99080.55;108011;1264;58946;-67
2022/12/20 03:32:21;;;;;;;22.10;12.90;;;;;;;-9.10;97.34;99084.05;108002;1262;71370;-67
2022/12/20 03:34:50;;;;;;;;;;;;;;;-9.09;97.38;99084.45;107983;1266;69160;-67
2022/12/20 03:37:25;;;;;;;31.60;17.70;;;;;;;-9.09;97.71;99077.85;107988;1262;69691;-67
2022/12/20 03:39:56;;;;;;;30.40;18.50;;;;;;;-9.11;97.25;99066.79;107903;1266;58994;-67
2022/12/20 03:42:26;;;;;;;35.60;21.00;;;;;;;-9.13;97.11;99058.98;108011;1265;58890;-68
2022/12/20 03:44:58;;;;;;;37.20;21.70;;;;;;;-9.15;96.99;99065.51;107889;1266;69856;-68
2022/12/20 03:47:30;;;;;;;28.90;16.70;;;;;;;-9.20;96.57;99065.84;107760;1266;67454;-68
2022/12/20 03:50:00;;;;;;;38.10;21.30;;;;;;;-9.24;96.56;99059.63;107771;1265;69113;-68
2022/12/20 03:52:34;;;;;;;36.50;19.10;;;;;;;-9.26;97.50;99052.30;107946;1262;58924;-68
2022/12/20 03:55:06;;;;;;;31.10;19.70;;;;;;;-9.26;97.83;99047.42;107992;1262;58962;-68
2022/12/20 03:57:42;;;;;;;37.80;22.10;;;;;;;-9.25;98.21;99044.57;107952;1263;70682;-68
2022/12/20 04:00:25;;;;;;;35.00;19.70;;;;;;;-9.26;97.72;99045.40;108010;1262;68464;-68
2022/12/20 04:02:57;;;;;;;36.80;20.80;;;;;;;-9.25;97.48;99044.23;107852;1263;69880;-68
2022/12/20 04:05:27;;;;;;;29.40;20.50;;;;;;;-9.27;97.47;99042.33;107746;1261;58865;-67
2022/12/20 04:07:58;;;;;;;37.20;18.90;;;;;;;-9.31;97.23;99040.84;107712;1265;58915;-68
2022/12/20 04:10:28;;;;;;;32.90;18.70;;;;;;;-9.34;97.02;99040.27;107696;1261;70002;-68
2022/12/20 04:12:58;;;;;;;28.40;16.90;;;;;;;-9.34;97.23;99045.63;107797;1263;69032;-68
2022/12/20 04:15:27;;;;;;;35.50;20.30;;;;;;;-9.35;97.39;99048.30;107977;1263;68444;-68
2022/12/20 04:17:59;;;;;;;24.50;14.20;;;;;;;-9.35;97.20;99041.06;107816;1263;58906;-68
2022/12/20 04:20:29;;;;;;;;;;;;;;;-9.34;96.64;99033.83;107792;1262;58947;-68
2022/12/20 04:23:10;;;;;;;24.90;14.20;;;;;;;-9.29;96.97;99029.45;108062;1262;70561;-68
2022/12/20 04:25:40;;;;;;;27.60;16.50;;;;;;;-9.26;97.86;99031.89;107841;1266;69667;-68
2022/12/20 04:28:11;;;;;;;23.20;15.80;;;;;;;-9.25;98.58;99021.64;107666;1256;69333;-68
2022/12/20 04:30:42;;;;;;;30.70;16.30;;;;;;;-9.24;98.78;99011.85;107709;1266;58888;-68
2022/12/20 04:33:12;;;;;;;;;;;;;;;-9.24;98.45;99010.19;107794;1267;58888;-68
2022/12/20 04:35:42;;;;;;;34.50;21.00;;;;;;;-9.25;98.17;99009.98;108817;1256;69852;-69
2022/12/20 04:38:12;;;;;;;40.60;23.50;;;;;;;-9.25;97.92;99010.80;108889;1261;68698;-68
2022/12/20 04:40:42;;;;;;;34.00;18.50;;;;;;;-9.23;97.75;99009.35;108712;1260;69497;-69
2022/12/20 04:43:15;;;;;;;32.00;17.10;;;;;;;-9.24;97.37;99009.83;109012;1266;58800;-69
2022/12/20 04:45:51;;;;;;;30.40;16.90;;;;;;;-9.26;97.16;99005.38;108463;1262;58899;-69
2022/12/20 04:48:26;;;;;;;35.90;21.00;;;;;;;-9.24;97.03;99000.70;107923;1266;71102;-68
2022/12/20 04:51:17;;;;;;;36.60;19.20;;;;;;;-9.22;96.46;98999.06;107837;1264;69842;-68
2022/12/20 04:53:47;;;;;;;41.90;22.80;;;;;;;-9.18;96.50;98996.49;107707;1266;69081;-68
2022/12/20 04:56:46;;;;;;;35.40;19.50;;;;;;;-9.13;96.32;98999.00;107839;1266;58968;-68
2022/12/20 04:59:20;;;;;;;31.00;18.60;;;;;;;-9.10;95.91;99002.81;107954;1266;58870;-68
2022/12/20 05:01:52;;;;;;;35.30;19.80;;;;;;;-9.08;96.02;99007.27;107874;1256;71182;-69
2022/12/20 05:04:40;;;;;;;35.10;19.50;;;;;;;-9.07;96.02;99007.98;107827;1262;68051;-68
2022/12/20 05:07:11;;;;;;;32.90;17.90;;;;;;;-9.08;95.82;99009.63;107873;1260;69356;-68
2022/12/20 05:09:53;;;;;;;35.90;21.90;;;;;;;-9.12;95.83;99012.55;107824;1265;58933;-68
2022/12/20 05:12:25;;;;;;;32.10;19.00;;;;;;;-9.15;95.37;99011.79;107749;1261;58894;-68
2022/12/20 05:15:00;;;;;;;32.00;20.00;;;;;;;-9.17;96.31;99010.02;107797;1262;70024;-68
2022/12/20 05:17:29;;;;;;;33.50;19.30;;;;;;;-9.21;95.97;99007.05;108079;1261;69265;-68
2022/12/20 05:19:59;;;;;;;37.40;20.00;;;;;;;-9.30;95.14;99001.19;108073;1259;68808;-68
2022/12/20 05:28:07;;;;;;;46.60;28.80;;;;;;;-9.56;94.58;99001.39;107887;1263;69716;-68
2022/12/20 05:30:37;;;;;;;62.80;34.80;;;;;;;-9.62;94.62;99007.59;107906;1263;68519;-67
2022/12/20 05:33:06;;;;;;;43.20;24.50;;;;;;;-9.68;94.80;99008.41;108041;1263;69246;-68
2022/12/20 05:35:36;;;;;;;39.20;25.60;;;;;;;-9.72;95.27;99009.48;108022;1263;58961;-68
2022/12/20 05:38:08;;;;;;;37.40;21.80;;;;;;;-9.72;96.44;99013.34;108042;1251;58900;-68
2022/12/20 05:40:39;;;;;;;31.00;17.90;;;;;;;-9.69;97.87;99016.16;108089;1264;70566;-68
2022/12/20 05:43:10;;;;;;;28.20;16.50;;;;;;;-9.67;97.72;99007.92;107915;1262;69195;-68
2022/12/20 05:45:50;;;;;;;29.80;17.40;;;;;;;-9.63;97.45;99008.56;107718;1262;69828;-67
2022/12/20 05:48:23;;;;;;;24.40;14.70;;;;;;;-9.59;97.34;99008.38;108009;1265;58909;-68
2022/12/20 05:50:53;;;;;;;28.10;16.40;;;;;;;-9.52;97.74;99009.27;107741;1263;58970;-67
2022/12/20 05:53:28;;;;;;;42.40;25.20;;;;;;;-9.44;98.04;99012.21;107954;1265;70875;-68
2022/12/20 05:56:00;;;;;;;35.90;19.90;;;;;;;-9.41;97.58;99009.46;107887;1263;69670;-68
2022/12/20 05:58:32;;;;;;;38.50;22.90;;;;;;;-9.41;97.13;99009.61;107784;1260;69563;-67
2022/12/20 06:01:06;;;;;;;45.40;23.10;;;;;;;-9.43;96.62;99009.73;108006;1261;59286;-67
2022/12/20 06:03:39;;;;;;;46.90;26.40;;;;;;;-9.43;96.65;99011.59;107757;1266;58977;-68
2022/12/20 06:06:14;;;;;;;38.30;20.90;;;;;;;-9.42;96.59;99011.80;107986;1262;70907;-67
2022/12/20 06:08:47;;;;;;;33.40;20.40;;;;;;;-9.39;96.48;99015.58;107669;1263;69426;-68
2022/12/20 06:11:32;;;;;;;36.70;21.00;;;;;;;-9.36;96.52;99007.42;107936;1264;69774;-69
2022/12/20 06:14:06;;;;;;;37.40;19.80;;;;;;;-9.29;97.02;99004.61;107761;1261;58981;-68
2022/12/20 06:16:38;;;;;;;31.70;17.60;;;;;;;-9.23;97.52;99006.80;107923;1262;58923;-69
2022/12/20 06:19:10;;;;;;;37.40;22.30;;;;;;;-9.18;97.35;99010.35;107677;1262;70635;-68
2022/12/20 06:21:47;;;;;;;50.70;25.40;;;;;;;-9.13;97.32;99013.04;108075;1263;69160;-68
2022/12/20 06:24:17;;;;;;;123.40;66.00;;;;;;;-9.07;97.31;99016.44;107966;1259;68517;-69
2022/12/20 06:26:46;;;;;;;111.60;56.20;;;;;;;-9.00;96.50;99011.56;108004;1263;58953;-68
2022/12/20 06:29:16;;;;;;;118.40;64.70;;;;;;;-8.92;96.12;99005.55;108003;1263;58938;-70
2022/12/20 06:31:51;;;;;;;81.90;46.30;;;;;;;-8.82;96.45;99006.88;107896;1263;70405;-77
2022/12/20 06:34:21;;;;;;;78.60;39.00;;;;;;;-8.70;96.98;99007.55;107901;1263;69777;-69
2022/12/20 06:36:50;;;;;;;59.40;35.90;;;;;;;-8.57;97.21;99007.75;107708;1266;68294;-69
2022/12/20 06:39:24;;;;;;;59.40;33.80;;;;;;;-8.42;97.48;99010.70;107997;1263;58953;-68
2022/12/20 06:42:01;;;;;;;58.30;34.70;;;;;;;-8.26;97.72;99009.25;107981;1265;58864;-70
2022/12/20 06:44:30;;;;;;;63.60;41.10;;;;;;;-8.10;97.72;99013.39;107873;1262;70605;-70
2022/12/20 06:47:00;;;;;;;72.80;46.00;;;;;;;-7.95;97.38;99007.20;107950;1261;70175;-69
2022/12/20 06:49:29;;;;;;;;;;;;;;;-7.80;96.97;99001.65;107887;1265;69297;-69
2022/12/20 06:51:59;;;;;;;58.70;35.30;;;;;;;-7.66;96.50;98998.63;107832;1267;58948;-69
2022/12/20 06:54:49;;;;;;;;;;;;;;;-7.49;96.12;98987.86;108009;1256;58871;-67
2022/12/20 06:57:20;;;;;;;77.70;49.20;;;;;;;-7.35;95.48;98988.88;107799;1265;70568;-67
2022/12/20 06:59:49;;;;;;;79.00;48.00;;;;;;;-7.19;95.34;98991.27;108015;1262;69858;-67
2022/12/20 07:02:19;;;;;;;79.20;47.80;;;;;;;-6.99;95.09;98995.79;107997;1262;69884;-67
2022/12/20 07:04:48;;;;;;;83.90;46.70;;;;;;;-6.61;94.84;98995.41;107956;1265;58928;-68
2022/12/20 07:07:18;;;;;;;120.50;69.60;;;;;;;-6.04;94.65;98999.73;107843;1265;58903;-67
2022/12/20 07:09:47;;;;;;;117.90;66.80;;;;;;;-5.57;89.28;98995.77;107896;1261;70575;-67
2022/12/20 07:12:18;;;;;;;89.80;52.50;;;;;;;-5.05;86.35;98998.11;108071;1265;68458;-67
2022/12/20 07:14:47;;;;;;;74.10;46.00;;;;;;;-4.47;84.54;99000.94;107905;1265;69872;-68
2022/12/20 07:17:16;;;;;;;106.70;67.50;;;;;;;-3.90;84.26;98993.41;107759;1262;58957;-68
2022/12/20 07:19:45;;;;;;;81.00;50.40;;;;;;;-3.30;80.89;98991.21;108049;1259;58921;-68
2022/12/20 07:22:20;;;;;;;86.30;51.60;;;;;;;-2.65;80.54;98990.59;108023;1265;70457;-68
2022/12/20 07:24:49;;;;;;;70.40;42.20;;;;;;;-2.04;84.63;98989.13;107821;1266;69808;-69
2022/12/20 07:27:18;;;;;;;54.50;38.00;;;;;;;-1.51;81.32;98988.52;107933;1262;69831;-69
2022/12/20 07:29:47;;;;;;;53.50;33.50;;;;;;;-1.74;71.04;98984.91;107952;1260;58952;-68
2022/12/20 07:32:16;;;;;;;41.70;27.70;;;;;;;-1.69;70.71;98985.95;108034;1265;58931;-69
2022/12/20 07:34:45;;;;;;;36.70;25.10;;;;;;;-1.37;72.31;98983.41;108007;1265;71196;-69
2022/12/20 07:37:14;;;;;;;39.10;25.40;;;;;;;-1.51;70.99;98983.05;108275;1263;69280;-69
2022/12/20 07:39:43;;;;;;;32.90;23.70;;;;;;;-1.49;70.04;98981.35;108529;1259;68382;-69
2022/12/20 07:42:13;;;;;;;36.30;24.50;;;;;;;-1.29;73.38;98988.70;108392;1265;58925;-69
2022/12/20 07:44:43;;;;;;;63.30;37.50;;;;;;;-1.69;70.90;98980.31;108159;1266;58974;-70
2022/12/20 07:47:12;;;;;;;51.90;32.80;;;;;;;-1.95;71.11;98982.83;108007;1265;71186;-68
2022/12/20 07:49:41;;;;;;;95.30;45.90;;;;;;;-2.14;72.39;98979.54;108028;1262;69156;-68
2022/12/20 07:52:13;;;;;;;58.40;32.30;;;;;;;-2.06;72.97;98974.95;108008;1264;69881;-68
2022/12/20 07:54:52;;;;;;;44.40;27.30;;;;;;;-2.06;73.34;98975.63;107824;1263;58953;-68
2022/12/20 07:57:36;;;;;;;59.50;33.60;;;;;;;-1.99;71.94;98973.94;107980;1262;58979;-68
2022/12/20 08:00:08;;;;;;;31.30;22.40;;;;;;;-2.17;72.57;98974.91;108074;1257;70861;-67
2022/12/20 08:02:47;;;;;;;29.30;20.30;;;;;;;-2.06;72.99;98967.27;107938;1262;68287;-68
2022/12/20 08:05:17;;;;;;;28.00;17.80;;;;;;;-1.88;70.75;98963.88;108024;1266;69255;-68
2022/12/20 08:07:47;;;;;;;36.80;23.90;;;;;;;-1.82;70.14;98958.42;108015;1259;58957;-68
2022/12/20 08:10:25;;;;;;;22.80;15.10;;;;;;;-1.74;67.12;98955.53;107916;1265;58893;-69
2022/12/20 08:12:55;;;;;;;28.70;18.90;;;;;;;-1.72;67.93;98957.41;107882;1263;70632;-68
2022/12/20 08:15:25;;;;;;;41.40;26.50;;;;;;;-1.71;70.22;98959.80;107949;1263;69902;-69
2022/12/20 08:17:54;;;;;;;39.70;27.90;;;;;;;-1.61;72.22;98956.23;107765;1265;70062;-67
2022/12/20 08:20:22;;;;;;;45.70;29.80;;;;;;;-1.54;72.47;98956.23;108009;1265;58920;-69
2022/12/20 08:22:51;;;;;;;40.20;28.00;;;;;;;-1.45;73.89;98955.53;108070;1266;58911;-68
2022/12/20 08:25:20;;;;;;;39.30;25.70;;;;;;;-1.33;73.15;98958.61;107972;1265;70421;-68
2022/12/20 08:27:49;;;;;;;38.10;25.20;;;;;;;-1.34;72.08;98957.23;107853;1265;69022;-68
2022/12/20 08:30:18;;;;;;;35.30;26.00;;;;;;;-1.36;72.08;98956.55;107728;1261;69840;-69
2022/12/20 08:32:47;;;;;;;33.40;23.30;;;;;;;-1.54;72.14;98947.33;107787;1265;58904;-69
2022/12/20 08:35:16;;;;;;;32.10;22.30;;;;;;;-1.67;71.62;98941.34;107879;1265;58904;-69
2022/12/20 08:37:45;;;;;;;33.10;22.50;;;;;;;-1.68;72.40;98938.28;107844;1261;70400;-69
2022/12/20 08:40:14;;;;;;;34.60;23.60;;;;;;;-1.72;72.39;98939.62;107865;1265;69000;-68
2022/12/20 08:42:42;;;;;;;35.50;24.80;;;;;;;-1.82;71.71;98939.27;107656;1262;68316;-69
2022/12/20 08:45:12;;;;;;;46.10;29.60;;;;;;;-1.77;72.23;98936.21;107662;1263;58914;-68
2022/12/20 08:47:41;;;;;;;49.90;31.50;;;;;;;-1.71;72.60;98937.41;107683;1262;58902;-68
2022/12/20 08:50:12;;;;;;;45.00;28.20;;;;;;;-1.80;73.06;98938.27;107676;1261;71190;-68
2022/12/20 08:52:41;;;;;;;52.30;31.00;;;;;;;-1.86;73.82;98935.02;107698;1261;68357;-68
2022/12/20 08:55:10;;;;;;;50.00;31.90;;;;;;;-1.88;74.26;98936.19;107728;1261;68458;-69
2022/12/20 08:57:40;;;;;;;48.90;29.60;;;;;;;-1.91;73.76;98935.69;107988;1265;58900;-70
2022/12/20 09:00:10;;;;;;;46.50;27.80;;;;;;;-1.95;73.88;98933.10;107887;1261;59026;-65
2022/12/20 09:02:40;;;;;;;40.00;26.00;;;;;;;-1.89;74.61;98932.26;107965;1261;69410;-65
2022/12/20 09:05:09;;;;;;;44.10;26.80;;;;;;;-1.84;74.16;98928.68;107966;1261;69822;-65
2022/12/20 09:07:38;;;;;;;48.00;31.20;;;;;;;-1.77;73.70;98928.52;107878;1262;68991;-65
2022/12/20 09:10:08;;;;;;;40.10;28.80;;;;;;;-1.85;74.16;98923.20;107813;1265;58885;-66
2022/12/20 09:12:37;;;;;;;46.50;30.50;;;;;;;-1.87;74.65;98920.99;107892;1265;58897;-65
2022/12/20 09:15:08;;;;;;;44.90;27.70;;;;;;;-1.75;76.85;98915.52;107770;1265;69973;-65
2022/12/20 09:17:37;;;;;;;42.70;25.30;;;;;;;-1.51;76.32;98916.90;107835;1265;68863;-65
2022/12/20 09:20:06;;;;;;;39.10;27.10;;;;;;;-1.41;74.30;98915.70;107403;1266;573388;-65
2022/12/20 09:22:35;;;;;;;43.70;27.10;;;;;;;-1.30;74.00;98919.09;107934;1265;58958;-65
2022/12/20 09:25:05;;;;;;;40.80;25.90;;;;;;;-1.32;72.16;98912.25;107786;1262;58850;-65
2022/12/20 09:27:34;;;;;;;39.60;25.10;;;;;;;-1.29;71.50;98908.14;107814;1265;71568;-65
2022/12/20 09:30:04;;;;;;;35.90;24.50;;;;;;;-1.17;71.09;98909.15;107757;1265;69717;-65
2022/12/20 09:32:34;;;;;;;37.90;25.80;;;;;;;-1.10;70.73;98908.10;107760;1265;69292;-65
2022/12/20 09:35:04;;;;;;;46.20;31.10;;;;;;;-1.08;71.30;98908.28;107646;1265;58950;-65
2022/12/20 09:37:33;;;;;;;45.60;31.90;;;;;;;-1.07;72.02;98904.34;107882;1262;58914;-65
2022/12/20 09:40:03;;;;;;;53.90;38.20;;;;;;;-0.89;71.95;98898.98;107852;1261;69408;-65
2022/12/20 09:42:32;;;;;;;56.40;39.60;;;;;;;-0.92;72.35;98894.02;107867;1265;69534;-65
2022/12/20 09:45:08;;;;;;;57.30;41.80;;;;;;;-0.58;71.96;98890.81;107939;1265;68318;-66
2022/12/20 09:47:38;;;;;;;61.80;40.90;;;;;;;-0.48;70.19;98882.89;107787;1265;58876;-65
2022/12/20 09:50:16;;;;;;;62.90;40.10;;;;;;;-0.09;69.77;98881.11;107870;1265;59022;-65
2022/12/20 09:53:05;;;;;;;68.60;45.80;;;;;;;0.42;69.19;98877.30;107650;1265;71210;-66
2022/12/20 09:55:48;;;;;;;62.00;40.80;;;;;;;0.87;68.33;98873.60;107764;1262;69799;-66
2022/12/20 09:58:23;;;;;;;55.70;37.10;;;;;;;0.90;65.72;98866.52;107905;1263;68732;-65
2022/12/20 10:00:52;;;;;;;78.30;54.70;;;;;;;1.31;66.11;98861.74;107727;1264;58913;-66
2022/12/20 10:03:28;;;;;;;75.00;53.10;;;;;;;1.54;66.46;98854.58;107731;1263;58976;-66
2022/12/20 10:06:36;;;;;;;82.20;60.00;;;;;;;1.48;66.20;98849.68;107765;1262;69797;-66
2022/12/20 10:09:17;;;;;;;87.30;59.70;;;;;;;1.37;66.72;98849.29;107808;1261;69184;-66
2022/12/20 10:11:55;;;;;;;82.20;54.70;;;;;;;1.48;66.35;98847.11;107744;1265;69749;-66
2022/12/20 10:14:46;;;;;;;72.80;50.30;;;;;;;1.30;65.38;98845.44;107669;1265;58906;-65
2022/12/20 10:17:39;;;;;;;70.60;50.90;;;;;;;1.42;65.52;98841.50;107629;1262;59000;-66
2022/12/20 10:20:30;;;;;;;76.40;55.10;;;;;;;1.89;65.90;98836.37;107626;1262;70959;-66
2022/12/20 10:23:14;;;;;;;67.00;46.30;;;;;;;1.76;64.83;98834.66;107662;1265;69042;-67
2022/12/20 10:25:44;;;;;;;80.00;56.30;;;;;;;2.01;65.00;98829.30;107849;1261;68324;-67
2022/12/20 10:28:15;;;;;;;74.30;53.80;;;;;;;2.10;65.01;98825.71;107808;1265;58965;-67
2022/12/20 10:30:44;;;;;;;69.40;49.40;;;;;;;2.18;64.58;98825.07;107732;1262;58937;-65
2022/12/20 10:33:20;;;;;;;74.20;54.40;;;;;;;2.23;64.69;98819.48;107894;1265;70762;-66
2022/12/20 10:35:50;;;;;;;74.60;54.00;;;;;;;2.39;64.25;98815.77;107863;1265;69018;-65
2022/12/20 10:38:19;;;;;;;83.10;55.70;;;;;;;2.37;63.91;98807.20;107674;1265;69847;-65
2022/12/20 10:40:57;;;;;;;76.00;53.20;;;;;;;2.39;63.83;98803.89;107960;1265;58915;-66
2022/12/20 10:44:03;;;;;;;71.90;49.70;;;;;;;2.40;63.27;98798.71;107877;1265;58862;-66
2022/12/20 10:46:39;;;;;;;72.00;52.00;;;;;;;2.40;63.07;98788.20;107916;1261;69756;-66
2022/12/20 10:49:29;;;;;;;68.10;48.90;;;;;;;2.41;63.34;98776.15;107692;1265;69795;-65
2022/12/20 10:52:08;;;;;;;64.40;44.30;;;;;;;2.67;62.93;98769.11;107889;1267;69888;-65
2022/12/20 10:54:38;;;;;;;54.60;42.20;;;;;;;3.00;62.44;98763.29;107797;1265;58860;-66
2022/12/20 10:57:24;;;;;;;61.30;45.60;;;;;;;3.34;60.45;98760.15;107673;1265;58850;-66
2022/12/20 10:59:57;;;;;;;62.50;42.90;;;;;;;3.51;59.78;98756.30;107825;1265;71206;-66
2022/12/20 11:02:37;;;;;;;59.60;42.90;;;;;;;3.45;59.47;98751.29;107840;1265;69218;-66
2022/12/20 11:05:11;;;;;;;54.00;40.20;;;;;;;3.29;59.37;98746.83;107646;1265;69238;-66
2022/12/20 11:07:59;;;;;;;52.40;37.50;;;;;;;3.23;59.64;98740.23;107791;1264;58899;-65
2022/12/20 11:10:48;;;;;;;54.50;37.50;;;;;;;3.45;58.04;98729.39;107729;1265;59036;-66
2022/12/20 11:13:25;;;;;;;47.00;34.70;;;;;;;3.42;57.36;98720.85;107846;1262;69744;-66
2022/12/20 11:15:56;;;;;;;47.20;33.10;;;;;;;3.53;57.35;98717.48;107735;1261;68379;-66
2022/12/20 11:18:34;;;;;;;44.20;31.20;;;;;;;3.35;57.39;98716.88;107856;1262;68899;-66
2022/12/20 11:21:06;;;;;;;47.80;35.30;;;;;;;3.63;57.69;98712.24;107863;1265;59003;-66
2022/12/20 11:23:55;;;;;;;43.80;32.70;;;;;;;3.84;55.49;98707.42;107860;1261;58912;-66
2022/12/20 11:26:50;;;;;;;45.50;33.30;;;;;;;4.02;55.98;98703.33;107960;1265;69625;-66
2022/12/20 11:29:34;;;;;;;44.10;32.50;;;;;;;4.11;55.74;98696.90;107834;1265;69827;-66
2022/12/20 11:32:25;;;;;;;45.40;33.70;;;;;;;4.07;54.61;98690.94;107897;1265;69848;-66
2022/12/20 11:35:09;;;;;;;43.70;31.00;;;;;;;4.35;53.98;98683.47;107770;1262;58975;-66
2022/12/20 11:38:05;;;;;;;40.70;30.70;;;;;;;4.81;53.13;98679.23;107969;1265;59265;-66
2022/12/20 11:40:49;;;;;;;46.00;32.00;;;;;;;5.35;52.27;98673.44;107886;1261;71164;-66
2022/12/20 11:43:45;;;;;;;43.80;32.70;;;;;;;5.66;51.40;98670.53;107861;1265;68404;-66
2022/12/20 11:47:00;;;;;;;44.00;29.70;;;;;;;5.74;50.93;98658.02;107826;1261;69867;-66
2022/12/20 11:50:09;;;;;;;44.10;34.90;;;;;;;5.45;51.40;98655.48;107694;1265;58957;-67
2022/12/20 11:52:45;;;;;;;48.10;37.40;;;;;;;5.58;51.32;98654.52;107657;1270;58865;-66